createdAt,value
2022-10-16T00:00:38.942Z,16.02
2022-10-16T00:03:26.763Z,23.80
2022-10-16T00:06:16.642Z,18.83
2022-10-16T00:09:13.061Z,19.92
2022-10-16T00:12:11.657Z,20.92
2022-10-16T00:15:12.360Z,17.95
2022-10-16T00:17:57.931Z,20.35
2022-10-16T00:20:47.788Z,21.88
2022-10-16T00:23:43.330Z,16.52
2022-10-16T00:26:30.973Z,23.42
2022-10-16T00:29:18.907Z,19.25
2022-10-16T00:32:25.340Z,16.17
2022-10-16T00:35:11.350Z,16.63
2022-10-16T00:38:03.233Z,16.45
2022-10-16T00:40:56.841Z,18.65
2022-10-16T00:44:03.550Z,23.25
2022-10-16T00:47:01.680Z,23.75
2022-10-16T00:49:57.083Z,21.92
2022-10-16T00:52:54.055Z,15.48
2022-10-16T00:55:42.397Z,17.20
2022-10-16T00:58:49.790Z,14.73
2022-10-16T01:01:41.171Z,16.95
2022-10-16T01:04:33.670Z,17.55
2022-10-16T01:07:56.562Z,16.50
2022-10-16T01:11:14.720Z,16.50
2022-10-16T01:14:06.627Z,18.77
2022-10-16T01:17:02.750Z,16.63
2022-10-16T01:19:58.586Z,13.95
2022-10-16T01:23:16.583Z,20.90
2022-10-16T01:26:21.025Z,17.33
2022-10-16T01:29:14.525Z,16.15
2022-10-16T01:32:20.839Z,15.60
2022-10-16T01:35:31.539Z,22.42
2022-10-16T01:38:38.734Z,16.50
2022-10-16T01:41:46.916Z,17.77
2022-10-16T01:44:37.233Z,21.40
2022-10-16T01:47:26.494Z,21.98
2022-10-16T01:50:15.754Z,18.33
2022-10-16T01:53:04.440Z,17.17
2022-10-16T01:55:51.474Z,24.10
2022-10-16T01:58:42.272Z,21.98
2022-10-16T02:05:12.356Z,22.13
2022-10-16T02:08:03.075Z,17.63
2022-10-16T02:10:50.155Z,25.75
2022-10-16T02:13:51.829Z,24.02
2022-10-16T02:16:46.567Z,11.20
2022-10-16T02:19:32.046Z,22.05
2022-10-16T02:22:41.202Z,15.48
2022-10-16T02:25:34.991Z,23.65
2022-10-16T02:28:28.621Z,16.02
2022-10-16T02:31:21.122Z,16.23
2022-10-16T02:34:07.683Z,15.23
2022-10-16T02:36:54.391Z,10.48
2022-10-16T02:39:41.524Z,14.40
2022-10-16T02:42:35.236Z,17.77
2022-10-16T02:45:33.941Z,13.90
2022-10-16T02:48:25.375Z,12.73
2022-10-16T02:51:10.739Z,12.15
2022-10-16T02:53:56.337Z,13.55
2022-10-16T02:56:41.809Z,13.63
2022-10-16T02:59:33.538Z,13.10
2022-10-16T03:02:19.537Z,10.93
2022-10-16T03:05:09.480Z,13.35
2022-10-16T03:07:54.846Z,18.17
2022-10-16T03:10:40.400Z,16.35
2022-10-16T03:13:25.984Z,11.98
2022-10-16T03:16:11.476Z,12.05
2022-10-16T03:18:56.909Z,15.85
2022-10-16T03:21:42.511Z,17.58
2022-10-16T03:24:45.575Z,20.88
2022-10-16T03:27:33.297Z,12.52
2022-10-16T03:30:18.724Z,14.77
2022-10-16T03:33:04.350Z,9.55
2022-10-16T03:35:54.729Z,12.65
2022-10-16T03:38:43.462Z,18.48
2022-10-16T03:41:28.929Z,14.98
2022-10-16T03:44:23.463Z,12.77
2022-10-16T03:47:09.312Z,14.30
2022-10-16T03:49:59.283Z,18.65
2022-10-16T03:52:45.721Z,15.98
2022-10-16T03:55:39.506Z,16.85
2022-10-16T03:58:29.508Z,12.13
2022-10-16T04:01:14.991Z,19.10
2022-10-16T04:04:00.684Z,16.63
2022-10-16T04:06:50.736Z,28.52
2022-10-16T04:09:36.125Z,17.92
2022-10-16T04:12:21.579Z,23.27
2022-10-16T04:15:07.493Z,17.25
2022-10-16T04:17:53.252Z,13.57
2022-10-16T04:20:39.286Z,15.68
2022-10-16T04:23:24.747Z,15.00
2022-10-16T04:26:11.316Z,17.83
2022-10-16T04:29:15.331Z,20.55
2022-10-16T04:32:07.182Z,21.85
2022-10-16T04:34:52.359Z,20.25
2022-10-16T04:37:37.797Z,23.65
2022-10-16T04:40:23.193Z,15.02
2022-10-16T04:43:13.374Z,17.20
2022-10-16T04:46:10.071Z,15.27
2022-10-16T04:48:56.788Z,15.80
2022-10-16T04:51:42.397Z,18.85
2022-10-16T04:54:27.909Z,12.07
2022-10-16T04:57:13.294Z,31.73
2022-10-16T04:59:58.972Z,18.10
2022-10-16T05:02:44.480Z,15.40
2022-10-16T05:05:29.897Z,12.13
2022-10-16T05:08:16.750Z,13.73
2022-10-16T05:11:02.531Z,20.00
2022-10-16T05:13:49.911Z,15.63
2022-10-16T05:16:44.924Z,14.07
2022-10-16T05:19:40.372Z,20.38
2022-10-16T05:22:25.754Z,16.75
2022-10-16T05:25:18.833Z,17.95
2022-10-16T05:28:04.368Z,15.65
2022-10-16T05:30:54.585Z,13.13
2022-10-16T05:33:40.199Z,18.52
2022-10-16T05:36:27.786Z,22.48
2022-10-16T05:39:15.622Z,12.35
2022-10-16T05:42:00.925Z,17.05
2022-10-16T05:44:46.647Z,18.92
2022-10-16T05:47:31.870Z,16.55
2022-10-16T05:50:17.571Z,12.43
2022-10-16T05:53:02.965Z,17.13
2022-10-16T05:55:53.673Z,18.35
2022-10-16T05:58:41.416Z,26.50
2022-10-16T06:01:26.916Z,8.73
2022-10-16T06:04:12.332Z,17.65
2022-10-16T06:07:01.585Z,13.35
2022-10-16T06:09:53.141Z,18.20
2022-10-16T06:12:38.351Z,13.85
2022-10-16T06:15:23.755Z,14.07
2022-10-16T06:18:10.142Z,16.25
2022-10-16T06:20:56.563Z,22.40
2022-10-16T06:23:41.914Z,24.23
2022-10-16T06:26:30.545Z,13.10
2022-10-16T06:29:15.806Z,17.48
2022-10-16T06:32:01.207Z,15.00
2022-10-16T06:34:47.347Z,17.20
2022-10-16T06:37:33.007Z,19.42
2022-10-16T06:40:18.600Z,13.43
2022-10-16T06:43:04.263Z,13.60
2022-10-16T06:45:57.833Z,12.82
2022-10-16T06:48:43.096Z,16.25
2022-10-16T06:51:28.903Z,13.27
2022-10-16T06:54:14.064Z,14.98
2022-10-16T06:57:00.988Z,15.80
2022-10-16T06:59:47.271Z,17.98
2022-10-16T07:02:33.103Z,17.48
2022-10-16T07:05:18.799Z,16.55
2022-10-16T07:08:06.226Z,16.48
2022-10-16T07:11:00.622Z,20.85
2022-10-16T07:13:50.908Z,17.25
2022-10-16T07:16:39.710Z,15.75
2022-10-16T07:19:28.337Z,15.85
2022-10-16T07:22:15.999Z,19.48
2022-10-16T07:25:01.476Z,22.40
2022-10-16T07:27:46.900Z,15.13
2022-10-16T07:30:36.240Z,22.23
2022-10-16T07:33:22.480Z,14.45
2022-10-16T07:36:09.591Z,14.15
2022-10-16T07:38:58.996Z,18.05
2022-10-16T07:41:45.862Z,12.70
2022-10-16T07:44:31.350Z,16.65
2022-10-16T07:47:16.897Z,16.33
2022-10-16T07:50:01.975Z,24.50
2022-10-16T07:52:47.578Z,15.18
2022-10-16T07:55:33.135Z,13.23
2022-10-16T07:58:18.498Z,15.77
2022-10-16T08:01:12.281Z,27.35
2022-10-16T08:03:57.855Z,17.48
2022-10-16T08:06:43.298Z,19.67
2022-10-16T08:09:28.806Z,12.40
2022-10-16T08:12:14.468Z,9.45
2022-10-16T08:14:59.759Z,16.60
2022-10-16T08:17:45.714Z,19.55
2022-10-16T08:20:32.267Z,15.90
2022-10-16T08:23:17.825Z,13.38
2022-10-16T08:26:08.585Z,16.52
2022-10-16T08:28:54.669Z,13.05
2022-10-16T08:31:40.345Z,16.30
2022-10-16T08:34:26.014Z,22.15
2022-10-16T08:37:13.409Z,12.25
2022-10-16T08:39:58.810Z,13.55
2022-10-16T08:42:44.290Z,11.57
2022-10-16T08:45:50.565Z,13.55
2022-10-16T08:48:35.712Z,14.73
2022-10-16T08:51:43.295Z,12.07
2022-10-16T08:54:41.776Z,12.50
2022-10-16T08:57:30.799Z,14.82
2022-10-16T09:00:17.305Z,13.15
2022-10-16T09:03:25.082Z,13.88
2022-10-16T09:06:39.589Z,13.85
2022-10-16T09:09:43.453Z,13.35
2022-10-16T09:12:37.682Z,13.85
2022-10-16T09:15:31.198Z,15.50
2022-10-16T09:18:16.361Z,17.45
2022-10-16T09:21:05.073Z,9.75
2022-10-16T09:23:51.705Z,12.30
2022-10-16T09:26:37.108Z,14.55
2022-10-16T09:29:24.561Z,12.23
2022-10-16T09:32:18.050Z,12.65
2022-10-16T09:35:03.681Z,10.13
2022-10-16T09:37:52.181Z,10.43
2022-10-16T09:40:39.839Z,10.73
2022-10-16T09:43:36.262Z,12.75
2022-10-16T09:46:30.085Z,10.45
2022-10-16T09:49:25.827Z,11.27
2022-10-16T09:52:16.009Z,12.18
2022-10-16T09:55:13.489Z,12.63
2022-10-16T09:57:58.820Z,9.57
2022-10-16T10:00:52.827Z,7.95
2022-10-16T10:03:43.922Z,12.75
2022-10-16T10:06:33.151Z,10.13
2022-10-16T10:09:26.807Z,13.98
2022-10-16T10:12:31.878Z,11.02
2022-10-16T10:15:24.853Z,9.73
2022-10-16T10:18:20.518Z,8.98
2022-10-16T10:21:07.079Z,9.98
2022-10-16T10:23:58.888Z,8.48
2022-10-16T10:27:07.679Z,13.00
2022-10-16T10:30:04.099Z,9.55
2022-10-16T10:33:04.729Z,7.43
2022-10-16T10:36:20.866Z,9.52
2022-10-16T10:39:18.431Z,7.78
2022-10-16T10:42:21.934Z,8.60
2022-10-16T10:45:29.146Z,8.82
2022-10-16T10:48:14.619Z,9.38
2022-10-16T10:51:18.792Z,12.00
2022-10-16T10:54:21.634Z,8.63
2022-10-16T10:57:29.049Z,9.55
2022-10-16T11:00:24.670Z,7.68
2022-10-16T11:03:31.565Z,9.43
2022-10-16T11:06:25.349Z,9.23
2022-10-16T11:09:13.428Z,10.80
2022-10-16T11:12:11.543Z,11.15
2022-10-16T11:15:02.653Z,12.05
2022-10-16T11:17:53.973Z,10.45
2022-10-16T11:20:45.936Z,9.85
2022-10-16T11:23:41.245Z,9.48
2022-10-16T11:26:34.811Z,11.27
2022-10-16T11:29:31.806Z,11.75
2022-10-16T11:32:29.900Z,11.32
2022-10-16T11:35:33.416Z,12.77
2022-10-16T11:41:45.452Z,13.35
2022-10-16T11:44:41.550Z,11.07
2022-10-16T11:50:55.159Z,11.52
2022-10-16T11:54:08.998Z,9.88
2022-10-16T11:56:59.614Z,13.82
2022-10-16T12:00:08.010Z,10.05
2022-10-16T12:03:30.404Z,10.48
2022-10-16T12:06:34.733Z,12.18
2022-10-16T12:09:31.421Z,11.82
2022-10-16T12:12:36.938Z,9.32
2022-10-16T12:15:40.977Z,8.73
2022-10-16T12:18:32.461Z,12.73
2022-10-16T12:21:20.137Z,14.60
2022-10-16T12:24:06.260Z,13.10
2022-10-16T12:26:53.616Z,16.00
2022-10-16T12:29:44.964Z,12.20
2022-10-16T12:32:48.042Z,15.98
2022-10-16T12:35:45.888Z,11.00
2022-10-16T12:38:34.227Z,21.17
2022-10-16T12:41:34.392Z,10.68
2022-10-16T12:44:29.129Z,16.50
2022-10-16T12:47:51.733Z,16.58
2022-10-16T12:50:40.323Z,14.68
2022-10-16T12:53:27.556Z,14.80
2022-10-16T12:56:24.121Z,16.55
2022-10-16T12:59:31.981Z,17.63
2022-10-16T13:02:28.833Z,13.25
2022-10-16T13:05:52.371Z,16.35
2022-10-16T13:08:59.598Z,11.27
2022-10-16T13:12:06.763Z,14.48
2022-10-16T13:15:31.075Z,16.98
2022-10-16T13:18:25.278Z,23.67
2022-10-16T13:21:28.457Z,14.32
2022-10-16T13:24:32.927Z,18.23
2022-10-16T13:27:35.140Z,18.30
2022-10-16T13:30:24.645Z,17.80
2022-10-16T13:33:36.116Z,16.85
2022-10-16T13:36:21.527Z,16.73
2022-10-16T13:39:14.928Z,27.10
2022-10-16T13:42:06.454Z,16.95
2022-10-16T13:44:56.345Z,17.30
2022-10-16T13:47:41.406Z,13.20
2022-10-16T13:50:27.042Z,15.50
2022-10-16T13:53:16.101Z,17.20
2022-10-16T13:56:04.922Z,12.15
2022-10-16T13:59:04.835Z,12.40
2022-10-16T14:01:52.607Z,18.33
2022-10-16T14:04:40.179Z,20.38
2022-10-16T14:07:28.829Z,15.93
2022-10-16T14:10:33.223Z,16.08
2022-10-16T14:13:21.492Z,19.38
2022-10-16T14:16:17.141Z,20.02
2022-10-16T14:19:07.407Z,17.20
2022-10-16T14:21:53.715Z,23.67
2022-10-16T14:24:39.330Z,12.05
2022-10-16T14:27:35.091Z,17.20
2022-10-16T14:30:23.145Z,13.10
2022-10-16T14:33:26.303Z,14.38
2022-10-16T14:36:13.258Z,17.27
2022-10-16T14:39:18.362Z,14.02
2022-10-16T14:42:03.764Z,16.10
2022-10-16T14:44:50.090Z,21.33
2022-10-16T14:47:37.174Z,19.92
2022-10-16T14:50:23.824Z,20.02
2022-10-16T14:53:15.938Z,15.27
2022-10-16T14:56:08.610Z,22.08
2022-10-16T14:58:54.723Z,13.47
2022-10-16T15:01:40.581Z,21.40
2022-10-16T15:04:26.250Z,14.88
2022-10-16T15:07:11.829Z,15.15
2022-10-16T15:09:58.048Z,12.07
2022-10-16T15:12:43.848Z,19.58
2022-10-16T15:15:39.748Z,11.52
2022-10-16T15:18:25.980Z,17.55
2022-10-16T15:21:31.025Z,16.17
2022-10-16T15:24:20.680Z,13.35
2022-10-16T15:27:07.504Z,16.45
2022-10-16T15:29:53.018Z,13.82
2022-10-16T15:32:39.054Z,17.15
2022-10-16T15:35:24.588Z,12.73
2022-10-16T15:38:14.713Z,12.93
2022-10-16T15:41:00.365Z,19.42
2022-10-16T15:43:49.205Z,14.40
2022-10-16T15:46:35.511Z,15.40
2022-10-16T15:49:21.287Z,13.55
2022-10-16T15:52:07.041Z,13.75
2022-10-16T15:54:54.281Z,17.45
2022-10-16T15:57:42.484Z,15.10
2022-10-16T16:00:28.485Z,17.98
2022-10-16T16:03:14.908Z,18.77
2022-10-16T16:06:06.645Z,11.68
2022-10-16T16:08:52.690Z,15.60
2022-10-16T16:11:39.777Z,11.10
2022-10-16T16:14:27.052Z,16.00
2022-10-16T16:17:12.386Z,18.20
2022-10-16T16:19:57.790Z,18.90
2022-10-16T16:22:43.670Z,14.90
2022-10-16T16:25:29.814Z,13.73
2022-10-16T16:28:15.759Z,10.45
2022-10-16T16:31:01.142Z,13.70
2022-10-16T16:33:47.118Z,9.50
2022-10-16T16:36:33.427Z,13.70
2022-10-16T16:39:20.054Z,13.88
2022-10-16T16:42:07.282Z,13.10
2022-10-16T16:44:52.557Z,10.35
2022-10-16T16:47:39.445Z,7.25
2022-10-16T16:50:24.907Z,14.80
2022-10-16T16:53:10.243Z,12.93
2022-10-16T16:55:55.768Z,8.15
2022-10-16T16:58:41.669Z,16.20
2022-10-16T17:01:28.318Z,10.27
2022-10-16T17:04:16.038Z,12.52
2022-10-16T17:07:01.786Z,12.82
2022-10-16T17:09:47.313Z,14.65
2022-10-16T17:12:33.068Z,13.70
2022-10-16T17:15:18.706Z,8.07
2022-10-16T17:18:04.107Z,10.95
2022-10-16T17:20:49.863Z,10.25
2022-10-16T17:23:36.974Z,9.98
2022-10-16T17:26:22.324Z,15.15
2022-10-16T17:29:12.932Z,11.52
2022-10-16T17:31:59.528Z,9.43
2022-10-16T17:34:44.909Z,10.10
2022-10-16T17:37:30.359Z,9.23
2022-10-16T17:40:15.854Z,12.63
2022-10-16T17:43:02.529Z,14.82
2022-10-16T17:45:48.034Z,17.80
2022-10-16T17:48:41.134Z,13.05
2022-10-16T17:51:29.548Z,12.25
2022-10-16T17:54:15.212Z,13.63
2022-10-16T17:57:00.457Z,10.07
2022-10-16T17:59:46.105Z,9.98
2022-10-16T18:02:31.923Z,9.88
2022-10-16T18:05:17.515Z,7.30
2022-10-16T18:08:02.990Z,6.47
2022-10-16T18:10:50.225Z,9.50
2022-10-16T18:13:35.472Z,13.63
2022-10-16T18:16:21.754Z,11.88
2022-10-16T18:19:07.743Z,6.43
2022-10-16T18:21:55.718Z,10.18
2022-10-16T18:24:41.474Z,8.15
2022-10-16T18:27:27.117Z,11.52
2022-10-16T18:30:13.919Z,12.32
2022-10-16T18:32:59.739Z,9.82
2022-10-16T18:35:45.417Z,13.70
2022-10-16T18:38:31.192Z,13.98
2022-10-16T18:41:16.985Z,13.05
2022-10-16T18:44:02.747Z,10.82
2022-10-16T18:46:48.259Z,12.20
2022-10-16T18:49:33.699Z,10.45
2022-10-16T18:52:19.168Z,8.90
2022-10-16T18:55:05.120Z,8.35
2022-10-16T18:57:50.569Z,14.07
2022-10-16T19:00:35.867Z,9.73
2022-10-16T19:03:21.678Z,10.45
2022-10-16T19:06:12.191Z,8.90
2022-10-16T19:08:57.800Z,8.93
2022-10-16T19:11:43.854Z,10.50
2022-10-16T19:14:30.203Z,9.48
2022-10-16T19:17:15.573Z,13.80
2022-10-16T19:20:00.984Z,9.95
2022-10-16T19:22:58.779Z,13.20
2022-10-16T19:25:44.505Z,10.88
2022-10-16T19:28:30.439Z,6.93
2022-10-16T19:31:18.551Z,6.30
2022-10-16T19:34:06.274Z,9.38
2022-10-16T19:36:53.595Z,11.25
2022-10-16T19:39:38.871Z,6.40
2022-10-16T19:42:24.596Z,10.10
2022-10-16T19:45:11.851Z,12.25
2022-10-16T19:47:57.741Z,10.38
2022-10-16T19:50:46.574Z,9.73
2022-10-16T19:53:32.599Z,12.35
2022-10-16T19:56:21.839Z,9.38
2022-10-16T19:59:09.323Z,15.10
2022-10-16T20:01:54.638Z,9.15
2022-10-16T20:04:40.363Z,10.27
2022-10-16T20:07:28.084Z,8.18
2022-10-16T20:10:15.438Z,4.18
2022-10-16T20:13:00.999Z,11.68
2022-10-16T20:15:46.796Z,12.80
2022-10-16T20:18:32.579Z,9.45
2022-10-16T20:21:21.613Z,10.68
2022-10-16T20:24:07.012Z,12.77
2022-10-16T20:26:52.458Z,13.07
2022-10-16T20:29:38.130Z,8.95
2022-10-16T20:32:24.125Z,8.82
2022-10-16T20:35:10.007Z,11.75
2022-10-16T20:37:55.443Z,9.82
2022-10-16T20:40:43.403Z,9.40
2022-10-16T20:43:28.899Z,7.97
2022-10-16T20:46:16.463Z,7.28
2022-10-16T20:49:11.222Z,7.53
2022-10-16T20:52:02.237Z,7.93
2022-10-16T20:54:47.647Z,9.55
2022-10-16T20:57:33.262Z,7.10
2022-10-16T21:00:19.039Z,4.95
2022-10-16T21:03:04.661Z,10.25
2022-10-16T21:05:50.347Z,6.05
2022-10-16T21:08:37.256Z,4.72
2022-10-16T21:11:27.623Z,7.20
2022-10-16T21:14:13.929Z,7.97
2022-10-16T21:17:01.280Z,3.63
2022-10-16T21:19:46.799Z,3.92
2022-10-16T21:22:32.474Z,4.72
2022-10-16T21:25:18.222Z,4.43
2022-10-16T21:28:03.751Z,4.82
2022-10-16T21:30:49.620Z,4.85
2022-10-16T21:33:35.206Z,6.10
2022-10-16T21:36:27.077Z,3.80
2022-10-16T21:39:16.688Z,3.88
2022-10-16T21:42:02.398Z,3.90
2022-10-16T21:44:47.785Z,6.70
2022-10-16T21:47:34.212Z,2.40
2022-10-16T21:50:19.587Z,4.53
2022-10-16T21:53:06.064Z,6.13
2022-10-16T21:55:51.457Z,4.70
2022-10-16T21:58:36.791Z,6.47
2022-10-16T22:01:25.132Z,4.32
2022-10-16T22:04:12.382Z,5.50
2022-10-16T22:06:57.880Z,6.88
2022-10-16T22:09:43.210Z,5.53
2022-10-16T22:12:29.662Z,6.03
2022-10-16T22:15:15.024Z,9.57
2022-10-16T22:18:01.410Z,11.20
2022-10-16T22:20:46.960Z,10.90
2022-10-16T22:23:32.510Z,7.63
2022-10-16T22:26:18.032Z,8.90
2022-10-16T22:29:03.927Z,9.60
2022-10-16T22:31:53.451Z,10.30
2022-10-16T22:34:39.054Z,15.55
2022-10-16T22:37:24.747Z,10.15
2022-10-16T22:40:11.388Z,14.25
2022-10-16T22:42:57.898Z,12.57
2022-10-16T22:45:43.003Z,12.18
2022-10-16T22:48:28.662Z,9.68
2022-10-16T22:51:17.272Z,10.02
2022-10-16T22:54:03.271Z,14.38
2022-10-16T22:56:48.836Z,10.65
2022-10-16T22:59:34.038Z,10.63
2022-10-16T23:02:19.493Z,12.60
2022-10-16T23:05:08.380Z,13.48
2022-10-16T23:07:53.502Z,17.35
2022-10-16T23:10:40.770Z,13.13
2022-10-16T23:13:26.349Z,13.77
2022-10-16T23:16:13.066Z,13.93
2022-10-16T23:18:58.744Z,15.05
2022-10-16T23:21:44.259Z,17.20
2022-10-16T23:24:31.341Z,18.17
2022-10-16T23:27:16.946Z,14.45
2022-10-16T23:30:02.300Z,13.15
2022-10-16T23:32:47.918Z,12.15
2022-10-16T23:35:33.431Z,16.38
2022-10-16T23:38:18.881Z,18.33
2022-10-16T23:41:04.341Z,16.42
2022-10-16T23:43:51.313Z,17.75
2022-10-16T23:46:36.942Z,13.73
2022-10-16T23:49:22.374Z,11.93
2022-10-16T23:52:07.874Z,14.15
2022-10-16T23:54:53.448Z,15.10
2022-10-16T23:57:38.934Z,14.98
